sensor_id;sensor_type;location;lat;lon;timestamp;P1;durP1;ratioP1;P2;durP2;ratioP2
1725;SDS011;41776;48.260;8.928;2022-07-12T00:01:47;7.37;;;3.77;;
1725;SDS011;41776;48.260;8.928;2022-07-12T00:04:13;6.13;;;3.60;;
1725;SDS011;41776;48.260;8.928;2022-07-12T00:06:41;5.20;;;3.20;;
1725;SDS011;41776;48.260;8.928;2022-07-12T00:09:08;6.43;;;3.93;;
1725;SDS011;41776;48.260;8.928;2022-07-12T00:11:34;5.80;;;3.83;;
1725;SDS011;41776;48.260;8.928;2022-07-12T00:14:02;5.27;;;3.90;;
1725;SDS011;41776;48.260;8.928;2022-07-12T00:16:29;6.20;;;4.00;;
1725;SDS011;41776;48.260;8.928;2022-07-12T00:18:57;6.07;;;3.90;;
1725;SDS011;41776;48.260;8.928;2022-07-12T00:21:24;4.97;;;3.90;;
1725;SDS011;41776;48.260;8.928;2022-07-12T00:23:54;6.10;;;3.73;;
1725;SDS011;41776;48.260;8.928;2022-07-12T00:26:20;5.27;;;3.93;;
1725;SDS011;41776;48.260;8.928;2022-07-12T00:28:47;4.57;;;3.70;;
1725;SDS011;41776;48.260;8.928;2022-07-12T00:31:14;5.23;;;3.90;;
1725;SDS011;41776;48.260;8.928;2022-07-12T00:33:40;5.63;;;3.80;;
1725;SDS011;41776;48.260;8.928;2022-07-12T00:36:07;7.77;;;4.00;;
1725;SDS011;41776;48.260;8.928;2022-07-12T00:38:34;6.97;;;4.37;;
1725;SDS011;41776;48.260;8.928;2022-07-12T00:41:05;6.40;;;4.10;;
1725;SDS011;41776;48.260;8.928;2022-07-12T00:43:32;5.40;;;4.30;;
1725;SDS011;41776;48.260;8.928;2022-07-12T00:45:58;6.28;;;4.68;;
1725;SDS011;41776;48.260;8.928;2022-07-12T00:48:25;6.43;;;4.40;;
1725;SDS011;41776;48.260;8.928;2022-07-12T00:50:51;5.50;;;4.03;;
1725;SDS011;41776;48.260;8.928;2022-07-12T00:53:18;10.07;;;3.97;;
1725;SDS011;41776;48.260;8.928;2022-07-12T00:55:48;6.47;;;4.33;;
1725;SDS011;41776;48.260;8.928;2022-07-12T00:58:22;4.90;;;3.57;;
1725;SDS011;41776;48.260;8.928;2022-07-12T01:00:49;7.30;;;4.00;;
1725;SDS011;41776;48.260;8.928;2022-07-12T01:03:16;5.60;;;3.83;;
1725;SDS011;41776;48.260;8.928;2022-07-12T01:05:47;8.17;;;4.40;;
1725;SDS011;41776;48.260;8.928;2022-07-12T01:08:13;7.40;;;4.60;;
1725;SDS011;41776;48.260;8.928;2022-07-12T01:10:42;7.90;;;4.43;;
1725;SDS011;41776;48.260;8.928;2022-07-12T01:13:09;6.90;;;4.03;;
1725;SDS011;41776;48.260;8.928;2022-07-12T01:15:38;6.90;;;4.03;;
1725;SDS011;41776;48.260;8.928;2022-07-12T01:18:05;6.67;;;4.20;;
1725;SDS011;41776;48.260;8.928;2022-07-12T01:20:33;11.97;;;4.77;;
1725;SDS011;41776;48.260;8.928;2022-07-12T01:23:01;6.37;;;4.33;;
1725;SDS011;41776;48.260;8.928;2022-07-12T01:25:28;5.40;;;4.07;;
1725;SDS011;41776;48.260;8.928;2022-07-12T01:27:55;5.97;;;4.27;;
1725;SDS011;41776;48.260;8.928;2022-07-12T01:30:37;8.60;;;4.47;;
1725;SDS011;41776;48.260;8.928;2022-07-12T01:33:05;11.63;;;4.23;;
1725;SDS011;41776;48.260;8.928;2022-07-12T01:35:32;6.77;;;4.30;;
1725;SDS011;41776;48.260;8.928;2022-07-12T01:38:02;7.53;;;3.90;;
1725;SDS011;41776;48.260;8.928;2022-07-12T01:40:29;6.43;;;4.30;;
1725;SDS011;41776;48.260;8.928;2022-07-12T01:42:56;7.40;;;4.30;;
1725;SDS011;41776;48.260;8.928;2022-07-12T01:45:23;6.53;;;4.20;;
1725;SDS011;41776;48.260;8.928;2022-07-12T01:47:50;7.70;;;4.47;;
1725;SDS011;41776;48.260;8.928;2022-07-12T01:50:16;8.60;;;4.93;;
1725;SDS011;41776;48.260;8.928;2022-07-12T01:52:42;7.37;;;5.07;;
1725;SDS011;41776;48.260;8.928;2022-07-12T01:55:11;6.73;;;4.47;;
1725;SDS011;41776;48.260;8.928;2022-07-12T01:57:38;10.63;;;4.03;;
1725;SDS011;41776;48.260;8.928;2022-07-12T02:00:09;6.80;;;4.40;;
1725;SDS011;41776;48.260;8.928;2022-07-12T02:02:37;6.20;;;4.40;;
1725;SDS011;41776;48.260;8.928;2022-07-12T02:05:04;8.13;;;4.57;;
1725;SDS011;41776;48.260;8.928;2022-07-12T02:07:33;6.73;;;4.57;;
1725;SDS011;41776;48.260;8.928;2022-07-12T02:10:02;9.43;;;4.80;;
1725;SDS011;41776;48.260;8.928;2022-07-12T02:12:32;6.47;;;4.23;;
1725;SDS011;41776;48.260;8.928;2022-07-12T02:14:59;7.37;;;4.17;;
1725;SDS011;41776;48.260;8.928;2022-07-12T02:17:27;7.40;;;4.60;;
1725;SDS011;41776;48.260;8.928;2022-07-12T02:19:54;6.00;;;4.37;;
1725;SDS011;41776;48.260;8.928;2022-07-12T02:22:20;9.30;;;5.40;;
1725;SDS011;41776;48.260;8.928;2022-07-12T02:24:47;7.33;;;4.27;;
1725;SDS011;41776;48.260;8.928;2022-07-12T02:27:13;7.63;;;4.10;;
1725;SDS011;41776;48.260;8.928;2022-07-12T02:29:41;5.00;;;3.70;;
1725;SDS011;41776;48.260;8.928;2022-07-12T02:32:07;5.53;;;3.90;;
1725;SDS011;41776;48.260;8.928;2022-07-12T02:34:34;7.10;;;4.03;;
1725;SDS011;41776;48.260;8.928;2022-07-12T02:37:00;6.50;;;3.77;;
1725;SDS011;41776;48.260;8.928;2022-07-12T02:39:27;7.20;;;4.33;;
1725;SDS011;41776;48.260;8.928;2022-07-12T02:41:57;6.53;;;4.20;;
1725;SDS011;41776;48.260;8.928;2022-07-12T02:44:24;7.50;;;4.20;;
1725;SDS011;41776;48.260;8.928;2022-07-12T02:46:52;6.87;;;4.47;;
1725;SDS011;41776;48.260;8.928;2022-07-12T02:49:18;10.23;;;4.90;;
1725;SDS011;41776;48.260;8.928;2022-07-12T02:51:45;9.17;;;5.37;;
1725;SDS011;41776;48.260;8.928;2022-07-12T02:54:11;8.43;;;5.10;;
1725;SDS011;41776;48.260;8.928;2022-07-12T02:56:39;6.37;;;4.50;;
1725;SDS011;41776;48.260;8.928;2022-07-12T02:59:05;6.80;;;4.33;;
1725;SDS011;41776;48.260;8.928;2022-07-12T03:01:32;6.83;;;4.50;;
1725;SDS011;41776;48.260;8.928;2022-07-12T03:04:01;6.83;;;4.90;;
1725;SDS011;41776;48.260;8.928;2022-07-12T03:06:27;10.02;;;5.53;;
1725;SDS011;41776;48.260;8.928;2022-07-12T03:08:56;11.70;;;5.73;;
1725;SDS011;41776;48.260;8.928;2022-07-12T03:11:22;11.57;;;5.80;;
1725;SDS011;41776;48.260;8.928;2022-07-12T03:13:49;9.67;;;5.17;;
1725;SDS011;41776;48.260;8.928;2022-07-12T03:16:15;10.13;;;5.10;;
1725;SDS011;41776;48.260;8.928;2022-07-12T03:18:41;7.80;;;4.77;;
1725;SDS011;41776;48.260;8.928;2022-07-12T03:21:10;9.20;;;5.00;;
1725;SDS011;41776;48.260;8.928;2022-07-12T03:23:37;6.90;;;4.80;;
1725;SDS011;41776;48.260;8.928;2022-07-12T03:26:05;6.80;;;4.50;;
1725;SDS011;41776;48.260;8.928;2022-07-12T03:28:32;8.43;;;4.60;;
1725;SDS011;41776;48.260;8.928;2022-07-12T03:30:59;8.40;;;4.90;;
1725;SDS011;41776;48.260;8.928;2022-07-12T03:33:26;7.03;;;4.77;;
1725;SDS011;41776;48.260;8.928;2022-07-12T03:35:52;8.73;;;5.50;;
1725;SDS011;41776;48.260;8.928;2022-07-12T03:38:20;10.23;;;5.77;;
1725;SDS011;41776;48.260;8.928;2022-07-12T03:40:48;7.63;;;4.87;;
1725;SDS011;41776;48.260;8.928;2022-07-12T03:43:15;7.70;;;5.23;;
1725;SDS011;41776;48.260;8.928;2022-07-12T03:45:41;9.07;;;5.63;;
1725;SDS011;41776;48.260;8.928;2022-07-12T03:48:08;9.90;;;5.80;;
1725;SDS011;41776;48.260;8.928;2022-07-12T03:50:35;12.67;;;6.40;;
1725;SDS011;41776;48.260;8.928;2022-07-12T03:53:01;9.27;;;5.87;;
1725;SDS011;41776;48.260;8.928;2022-07-12T03:55:29;8.50;;;5.50;;
1725;SDS011;41776;48.260;8.928;2022-07-12T03:57:55;9.57;;;5.33;;
1725;SDS011;41776;48.260;8.928;2022-07-12T04:00:25;6.43;;;4.97;;
1725;SDS011;41776;48.260;8.928;2022-07-12T04:02:52;8.83;;;5.20;;
1725;SDS011;41776;48.260;8.928;2022-07-12T04:05:19;8.63;;;4.90;;
1725;SDS011;41776;48.260;8.928;2022-07-12T04:07:45;10.90;;;5.40;;
1725;SDS011;41776;48.260;8.928;2022-07-12T04:10:12;8.23;;;5.30;;
1725;SDS011;41776;48.260;8.928;2022-07-12T04:12:39;10.43;;;6.10;;
1725;SDS011;41776;48.260;8.928;2022-07-12T04:15:07;9.13;;;5.70;;
1725;SDS011;41776;48.260;8.928;2022-07-12T04:17:34;11.40;;;5.73;;
1725;SDS011;41776;48.260;8.928;2022-07-12T04:20:00;9.77;;;5.37;;
1725;SDS011;41776;48.260;8.928;2022-07-12T04:22:29;7.37;;;5.10;;
1725;SDS011;41776;48.260;8.928;2022-07-12T04:24:56;9.97;;;5.47;;
1725;SDS011;41776;48.260;8.928;2022-07-12T04:27:22;9.03;;;5.83;;
1725;SDS011;41776;48.260;8.928;2022-07-12T04:29:53;9.10;;;5.73;;
1725;SDS011;41776;48.260;8.928;2022-07-12T04:32:20;11.40;;;5.50;;
1725;SDS011;41776;48.260;8.928;2022-07-12T04:34:46;17.00;;;6.30;;
1725;SDS011;41776;48.260;8.928;2022-07-12T04:37:14;12.03;;;6.60;;
1725;SDS011;41776;48.260;8.928;2022-07-12T04:39:43;12.43;;;6.27;;
1725;SDS011;41776;48.260;8.928;2022-07-12T04:42:12;12.13;;;6.30;;
1725;SDS011;41776;48.260;8.928;2022-07-12T04:44:40;12.43;;;6.20;;
1725;SDS011;41776;48.260;8.928;2022-07-12T04:47:08;10.93;;;6.03;;
1725;SDS011;41776;48.260;8.928;2022-07-12T04:49:35;10.67;;;5.63;;
1725;SDS011;41776;48.260;8.928;2022-07-12T04:52:02;12.07;;;5.83;;
1725;SDS011;41776;48.260;8.928;2022-07-12T04:54:28;10.53;;;6.17;;
1725;SDS011;41776;48.260;8.928;2022-07-12T04:56:55;12.30;;;7.53;;
1725;SDS011;41776;48.260;8.928;2022-07-12T04:59:21;12.50;;;6.90;;
1725;SDS011;41776;48.260;8.928;2022-07-12T05:01:48;16.37;;;8.43;;
1725;SDS011;41776;48.260;8.928;2022-07-12T05:04:16;16.10;;;7.90;;
1725;SDS011;41776;48.260;8.928;2022-07-12T05:06:42;14.97;;;9.00;;
1725;SDS011;41776;48.260;8.928;2022-07-12T05:09:09;13.10;;;8.43;;
1725;SDS011;41776;48.260;8.928;2022-07-12T05:11:35;14.00;;;8.20;;
1725;SDS011;41776;48.260;8.928;2022-07-12T05:14:01;17.13;;;7.87;;
1725;SDS011;41776;48.260;8.928;2022-07-12T05:16:28;10.77;;;7.10;;
1725;SDS011;41776;48.260;8.928;2022-07-12T05:18:54;13.20;;;6.77;;
1725;SDS011;41776;48.260;8.928;2022-07-12T05:21:22;9.73;;;6.13;;
1725;SDS011;41776;48.260;8.928;2022-07-12T05:23:49;10.73;;;6.63;;
1725;SDS011;41776;48.260;8.928;2022-07-12T05:26:15;15.53;;;7.60;;
1725;SDS011;41776;48.260;8.928;2022-07-12T05:28:42;11.70;;;7.03;;
1725;SDS011;41776;48.260;8.928;2022-07-12T05:31:09;14.27;;;8.40;;
1725;SDS011;41776;48.260;8.928;2022-07-12T05:33:35;12.83;;;6.97;;
1725;SDS011;41776;48.260;8.928;2022-07-12T05:36:02;12.33;;;6.90;;
1725;SDS011;41776;48.260;8.928;2022-07-12T05:38:30;12.07;;;6.68;;
1725;SDS011;41776;48.260;8.928;2022-07-12T05:40:56;11.90;;;6.32;;
1725;SDS011;41776;48.260;8.928;2022-07-12T05:43:23;8.90;;;6.32;;
1725;SDS011;41776;48.260;8.928;2022-07-12T05:45:52;11.10;;;5.68;;
1725;SDS011;41776;48.260;8.928;2022-07-12T05:48:19;8.52;;;5.95;;
1725;SDS011;41776;48.260;8.928;2022-07-12T05:50:45;7.07;;;4.88;;
1725;SDS011;41776;48.260;8.928;2022-07-12T05:53:11;7.45;;;3.92;;
1725;SDS011;41776;48.260;8.928;2022-07-12T05:55:51;4.95;;;3.20;;
1725;SDS011;41776;48.260;8.928;2022-07-12T05:58:19;7.93;;;2.80;;
1725;SDS011;41776;48.260;8.928;2022-07-12T06:00:46;2.97;;;2.20;;
1725;SDS011;41776;48.260;8.928;2022-07-12T06:03:13;2.67;;;2.10;;
1725;SDS011;41776;48.260;8.928;2022-07-12T06:05:40;2.75;;;2.10;;
1725;SDS011;41776;48.260;8.928;2022-07-12T06:08:07;2.63;;;2.10;;
1725;SDS011;41776;48.260;8.928;2022-07-12T06:10:33;3.95;;;1.77;;
1725;SDS011;41776;48.260;8.928;2022-07-12T06:13:01;2.08;;;1.70;;
1725;SDS011;41776;48.260;8.928;2022-07-12T06:15:28;2.90;;;1.55;;
1725;SDS011;41776;48.260;8.928;2022-07-12T06:17:55;2.38;;;1.80;;
1725;SDS011;41776;48.260;8.928;2022-07-12T06:20:22;4.40;;;1.75;;
1725;SDS011;41776;48.260;8.928;2022-07-12T06:22:49;2.65;;;1.88;;
1725;SDS011;41776;48.260;8.928;2022-07-12T06:25:17;2.65;;;1.90;;
1725;SDS011;41776;48.260;8.928;2022-07-12T06:27:43;4.25;;;2.00;;
1725;SDS011;41776;48.260;8.928;2022-07-12T06:30:17;4.80;;;2.08;;
1725;SDS011;41776;48.260;8.928;2022-07-12T06:32:44;3.92;;;1.70;;
1725;SDS011;41776;48.260;8.928;2022-07-12T06:35:11;3.70;;;1.98;;
1725;SDS011;41776;48.260;8.928;2022-07-12T06:37:38;2.58;;;1.70;;
1725;SDS011;41776;48.260;8.928;2022-07-12T06:40:05;2.80;;;2.03;;
1725;SDS011;41776;48.260;8.928;2022-07-12T06:42:32;3.45;;;2.40;;
1725;SDS011;41776;48.260;8.928;2022-07-12T06:44:58;3.03;;;2.30;;
1725;SDS011;41776;48.260;8.928;2022-07-12T06:47:26;4.22;;;2.20;;
1725;SDS011;41776;48.260;8.928;2022-07-12T06:49:52;4.13;;;2.03;;
1725;SDS011;41776;48.260;8.928;2022-07-12T06:52:19;3.65;;;2.97;;
1725;SDS011;41776;48.260;8.928;2022-07-12T06:54:45;5.00;;;2.60;;
1725;SDS011;41776;48.260;8.928;2022-07-12T06:57:12;3.20;;;2.13;;
1725;SDS011;41776;48.260;8.928;2022-07-12T06:59:38;2.88;;;2.08;;
1725;SDS011;41776;48.260;8.928;2022-07-12T07:02:04;2.58;;;2.30;;
1725;SDS011;41776;48.260;8.928;2022-07-12T07:04:32;3.95;;;2.80;;
1725;SDS011;41776;48.260;8.928;2022-07-12T07:06:59;3.88;;;2.45;;
1725;SDS011;41776;48.260;8.928;2022-07-12T07:09:25;3.72;;;2.55;;
1725;SDS011;41776;48.260;8.928;2022-07-12T07:11:52;4.07;;;2.55;;
1725;SDS011;41776;48.260;8.928;2022-07-12T07:14:18;6.38;;;2.78;;
1725;SDS011;41776;48.260;8.928;2022-07-12T07:16:45;3.08;;;2.50;;
1725;SDS011;41776;48.260;8.928;2022-07-12T07:19:11;2.60;;;2.40;;
1725;SDS011;41776;48.260;8.928;2022-07-12T07:21:39;3.70;;;2.72;;
1725;SDS011;41776;48.260;8.928;2022-07-12T07:24:05;4.47;;;2.55;;
1725;SDS011;41776;48.260;8.928;2022-07-12T07:26:32;4.28;;;2.85;;
1725;SDS011;41776;48.260;8.928;2022-07-12T07:28:59;4.85;;;2.70;;
1725;SDS011;41776;48.260;8.928;2022-07-12T07:31:43;7.68;;;2.72;;
1725;SDS011;41776;48.260;8.928;2022-07-12T07:34:10;3.80;;;2.97;;
1725;SDS011;41776;48.260;8.928;2022-07-12T07:36:36;3.95;;;2.90;;
1725;SDS011;41776;48.260;8.928;2022-07-12T07:39:04;5.40;;;3.20;;
1725;SDS011;41776;48.260;8.928;2022-07-12T07:41:31;4.05;;;3.05;;
1725;SDS011;41776;48.260;8.928;2022-07-12T07:43:57;7.22;;;3.17;;
1725;SDS011;41776;48.260;8.928;2022-07-12T07:46:24;4.43;;;3.08;;
1725;SDS011;41776;48.260;8.928;2022-07-12T07:48:50;5.80;;;3.20;;
1725;SDS011;41776;48.260;8.928;2022-07-12T07:51:17;7.10;;;2.90;;
1725;SDS011;41776;48.260;8.928;2022-07-12T07:53:43;5.72;;;2.83;;
1725;SDS011;41776;48.260;8.928;2022-07-12T07:56:11;5.05;;;2.90;;
1725;SDS011;41776;48.260;8.928;2022-07-12T07:58:37;4.28;;;3.10;;
1725;SDS011;41776;48.260;8.928;2022-07-12T08:01:04;5.93;;;2.97;;
1725;SDS011;41776;48.260;8.928;2022-07-12T08:03:31;3.25;;;2.85;;
1725;SDS011;41776;48.260;8.928;2022-07-12T08:05:57;3.72;;;2.50;;
1725;SDS011;41776;48.260;8.928;2022-07-12T08:08:25;5.30;;;2.70;;
1725;SDS011;41776;48.260;8.928;2022-07-12T08:10:52;4.47;;;3.05;;
1725;SDS011;41776;48.260;8.928;2022-07-12T08:13:20;5.28;;;2.97;;
1725;SDS011;41776;48.260;8.928;2022-07-12T08:15:47;4.40;;;2.80;;
1725;SDS011;41776;48.260;8.928;2022-07-12T08:18:17;5.10;;;2.70;;
1725;SDS011;41776;48.260;8.928;2022-07-12T08:20:43;3.45;;;2.65;;
1725;SDS011;41776;48.260;8.928;2022-07-12T08:23:10;6.07;;;2.60;;
1725;SDS011;41776;48.260;8.928;2022-07-12T08:25:37;6.55;;;2.53;;
1725;SDS011;41776;48.260;8.928;2022-07-12T08:28:04;5.63;;;2.60;;
1725;SDS011;41776;48.260;8.928;2022-07-12T08:30:32;4.68;;;2.50;;
1725;SDS011;41776;48.260;8.928;2022-07-12T08:32:58;2.72;;;2.20;;
1725;SDS011;41776;48.260;8.928;2022-07-12T08:35:25;6.03;;;3.22;;
1725;SDS011;41776;48.260;8.928;2022-07-12T08:37:51;4.35;;;2.67;;
1725;SDS011;41776;48.260;8.928;2022-07-12T08:40:19;4.65;;;2.70;;
1725;SDS011;41776;48.260;8.928;2022-07-12T08:42:46;3.60;;;2.80;;
1725;SDS011;41776;48.260;8.928;2022-07-12T08:45:13;7.03;;;2.72;;
1725;SDS011;41776;48.260;8.928;2022-07-12T08:47:40;3.75;;;2.67;;
1725;SDS011;41776;48.260;8.928;2022-07-12T08:50:14;4.82;;;2.53;;
1725;SDS011;41776;48.260;8.928;2022-07-12T08:52:43;7.63;;;3.10;;
1725;SDS011;41776;48.260;8.928;2022-07-12T08:55:15;5.07;;;2.47;;
1725;SDS011;41776;48.260;8.928;2022-07-12T08:57:44;5.07;;;2.90;;
1725;SDS011;41776;48.260;8.928;2022-07-12T09:00:11;4.15;;;2.72;;
1725;SDS011;41776;48.260;8.928;2022-07-12T09:02:46;5.15;;;2.80;;
1725;SDS011;41776;48.260;8.928;2022-07-12T09:05:14;3.80;;;2.47;;
1725;SDS011;41776;48.260;8.928;2022-07-12T09:07:41;4.18;;;2.28;;
1725;SDS011;41776;48.260;8.928;2022-07-12T09:10:09;3.50;;;2.10;;
1725;SDS011;41776;48.260;8.928;2022-07-12T09:12:37;3.75;;;2.15;;
1725;SDS011;41776;48.260;8.928;2022-07-12T09:15:15;4.18;;;2.00;;
1725;SDS011;41776;48.260;8.928;2022-07-12T09:17:55;3.08;;;2.30;;
1725;SDS011;41776;48.260;8.928;2022-07-12T09:20:24;2.90;;;2.33;;
1725;SDS011;41776;48.260;8.928;2022-07-12T09:22:52;5.30;;;2.25;;
1725;SDS011;41776;48.260;8.928;2022-07-12T09:25:22;3.20;;;2.13;;
1725;SDS011;41776;48.260;8.928;2022-07-12T09:27:52;2.80;;;2.20;;
1725;SDS011;41776;48.260;8.928;2022-07-12T09:30:20;4.82;;;2.40;;
1725;SDS011;41776;48.260;8.928;2022-07-12T09:32:52;3.45;;;2.45;;
1725;SDS011;41776;48.260;8.928;2022-07-12T09:35:38;4.93;;;1.98;;
1725;SDS011;41776;48.260;8.928;2022-07-12T09:38:19;5.60;;;2.38;;
1725;SDS011;41776;48.260;8.928;2022-07-12T09:40:46;4.68;;;2.22;;
1725;SDS011;41776;48.260;8.928;2022-07-12T09:43:16;4.68;;;2.15;;
1725;SDS011;41776;48.260;8.928;2022-07-12T09:45:43;3.80;;;1.88;;
1725;SDS011;41776;48.260;8.928;2022-07-12T09:48:12;2.85;;;2.05;;
1725;SDS011;41776;48.260;8.928;2022-07-12T09:50:40;2.42;;;1.90;;
1725;SDS011;41776;48.260;8.928;2022-07-12T09:53:12;3.95;;;2.17;;
1725;SDS011;41776;48.260;8.928;2022-07-12T09:55:45;2.42;;;1.95;;
1725;SDS011;41776;48.260;8.928;2022-07-12T09:58:14;6.45;;;2.17;;
1725;SDS011;41776;48.260;8.928;2022-07-12T10:00:48;5.43;;;2.88;;
1725;SDS011;41776;48.260;8.928;2022-07-12T10:03:16;3.58;;;2.47;;
1725;SDS011;41776;48.260;8.928;2022-07-12T10:05:47;4.90;;;2.00;;
1725;SDS011;41776;48.260;8.928;2022-07-12T10:08:15;5.60;;;2.55;;
1725;SDS011;41776;48.260;8.928;2022-07-12T10:10:43;3.08;;;2.03;;
1725;SDS011;41776;48.260;8.928;2022-07-12T10:13:10;9.00;;;3.15;;
1725;SDS011;41776;48.260;8.928;2022-07-12T10:15:36;3.03;;;2.08;;
1725;SDS011;41776;48.260;8.928;2022-07-12T10:18:04;2.30;;;2.10;;
1725;SDS011;41776;48.260;8.928;2022-07-12T10:20:32;4.13;;;2.10;;
1725;SDS011;41776;48.260;8.928;2022-07-12T10:25:56;2.85;;;2.00;;
1725;SDS011;41776;48.260;8.928;2022-07-12T10:28:23;3.28;;;2.42;;
1725;SDS011;41776;48.260;8.928;2022-07-12T10:31:25;3.45;;;2.00;;
1725;SDS011;41776;48.260;8.928;2022-07-12T10:34:14;3.22;;;2.00;;
1725;SDS011;41776;48.260;8.928;2022-07-12T10:37:07;3.90;;;2.15;;
1725;SDS011;41776;48.260;8.928;2022-07-12T10:39:43;2.50;;;2.08;;
1725;SDS011;41776;48.260;8.928;2022-07-12T10:42:40;4.57;;;2.10;;
1725;SDS011;41776;48.260;8.928;2022-07-12T10:45:30;6.18;;;2.13;;
1725;SDS011;41776;48.260;8.928;2022-07-12T10:47:59;2.95;;;2.00;;
1725;SDS011;41776;48.260;8.928;2022-07-12T10:53:24;3.70;;;2.40;;
1725;SDS011;41776;48.260;8.928;2022-07-12T10:58:41;3.20;;;2.53;;
1725;SDS011;41776;48.260;8.928;2022-07-12T11:01:13;3.78;;;2.00;;
1725;SDS011;41776;48.260;8.928;2022-07-12T11:03:41;3.03;;;2.10;;
1725;SDS011;41776;48.260;8.928;2022-07-12T11:06:10;2.63;;;1.92;;
1725;SDS011;41776;48.260;8.928;2022-07-12T11:08:48;3.65;;;2.08;;
1725;SDS011;41776;48.260;8.928;2022-07-12T11:11:22;3.25;;;1.77;;
1725;SDS011;41776;48.260;8.928;2022-07-12T11:13:49;3.38;;;2.30;;
1725;SDS011;41776;48.260;8.928;2022-07-12T11:16:17;4.18;;;1.90;;
1725;SDS011;41776;48.260;8.928;2022-07-12T11:18:44;2.92;;;1.75;;
1725;SDS011;41776;48.260;8.928;2022-07-12T11:21:11;4.13;;;1.95;;
1725;SDS011;41776;48.260;8.928;2022-07-12T11:23:38;3.55;;;2.25;;
1725;SDS011;41776;48.260;8.928;2022-07-12T11:26:07;1.98;;;1.67;;
1725;SDS011;41776;48.260;8.928;2022-07-12T11:28:34;2.17;;;1.70;;
1725;SDS011;41776;48.260;8.928;2022-07-12T11:31:01;6.03;;;1.88;;
1725;SDS011;41776;48.260;8.928;2022-07-12T11:33:32;4.72;;;1.60;;
1725;SDS011;41776;48.260;8.928;2022-07-12T11:36:00;2.28;;;1.70;;
1725;SDS011;41776;48.260;8.928;2022-07-12T11:38:28;2.55;;;1.90;;
1725;SDS011;41776;48.260;8.928;2022-07-12T11:40:55;4.82;;;1.77;;
1725;SDS011;41776;48.260;8.928;2022-07-12T11:43:22;2.67;;;1.23;;
1725;SDS011;41776;48.260;8.928;2022-07-12T11:45:49;2.20;;;1.50;;
1725;SDS011;41776;48.260;8.928;2022-07-12T11:48:15;1.75;;;1.38;;
1725;SDS011;41776;48.260;8.928;2022-07-12T11:50:43;1.95;;;1.70;;
1725;SDS011;41776;48.260;8.928;2022-07-12T11:53:14;2.58;;;1.60;;
1725;SDS011;41776;48.260;8.928;2022-07-12T11:55:41;2.53;;;1.60;;
1725;SDS011;41776;48.260;8.928;2022-07-12T11:58:09;1.75;;;1.35;;
1725;SDS011;41776;48.260;8.928;2022-07-12T12:00:36;4.20;;;1.60;;
1725;SDS011;41776;48.260;8.928;2022-07-12T12:03:03;1.83;;;1.50;;
1725;SDS011;41776;48.260;8.928;2022-07-12T12:05:30;2.78;;;1.30;;
1725;SDS011;41776;48.260;8.928;2022-07-12T12:07:58;2.08;;;1.50;;
1725;SDS011;41776;48.260;8.928;2022-07-12T12:10:25;1.55;;;1.00;;
1725;SDS011;41776;48.260;8.928;2022-07-12T12:12:52;2.67;;;1.20;;
1725;SDS011;41776;48.260;8.928;2022-07-12T12:15:20;2.90;;;1.50;;
1725;SDS011;41776;48.260;8.928;2022-07-12T12:17:51;1.50;;;1.33;;
1725;SDS011;41776;48.260;8.928;2022-07-12T12:20:20;2.08;;;1.40;;
1725;SDS011;41776;48.260;8.928;2022-07-12T12:22:48;3.33;;;1.50;;
1725;SDS011;41776;48.260;8.928;2022-07-12T12:25:17;1.52;;;1.30;;
1725;SDS011;41776;48.260;8.928;2022-07-12T12:27:45;1.33;;;1.00;;
1725;SDS011;41776;48.260;8.928;2022-07-12T12:30:12;1.20;;;1.08;;
1725;SDS011;41776;48.260;8.928;2022-07-12T12:32:46;1.67;;;1.17;;
1725;SDS011;41776;48.260;8.928;2022-07-12T12:35:14;1.90;;;1.15;;
1725;SDS011;41776;48.260;8.928;2022-07-12T12:37:48;2.00;;;1.30;;
1725;SDS011;41776;48.260;8.928;2022-07-12T12:40:19;1.35;;;1.00;;
1725;SDS011;41776;48.260;8.928;2022-07-12T12:42:46;4.03;;;1.20;;
1725;SDS011;41776;48.260;8.928;2022-07-12T12:45:19;2.92;;;1.33;;
1725;SDS011;41776;48.260;8.928;2022-07-12T12:47:53;2.83;;;1.20;;
1725;SDS011;41776;48.260;8.928;2022-07-12T12:50:36;4.18;;;1.02;;
1725;SDS011;41776;48.260;8.928;2022-07-12T12:53:08;2.45;;;0.98;;
1725;SDS011;41776;48.260;8.928;2022-07-12T12:55:37;2.65;;;0.90;;
1725;SDS011;41776;48.260;8.928;2022-07-12T12:58:05;0.88;;;0.82;;
1725;SDS011;41776;48.260;8.928;2022-07-12T13:00:34;1.55;;;1.10;;
1725;SDS011;41776;48.260;8.928;2022-07-12T13:03:03;1.50;;;0.80;;
1725;SDS011;41776;48.260;8.928;2022-07-12T13:05:30;0.95;;;0.80;;
1725;SDS011;41776;48.260;8.928;2022-07-12T13:07:56;1.23;;;0.80;;
1725;SDS011;41776;48.260;8.928;2022-07-12T13:10:23;2.03;;;0.85;;
1725;SDS011;41776;48.260;8.928;2022-07-12T13:12:51;0.85;;;0.75;;
1725;SDS011;41776;48.260;8.928;2022-07-12T13:15:18;0.77;;;0.68;;
1725;SDS011;41776;48.260;8.928;2022-07-12T13:17:44;1.45;;;0.65;;
1725;SDS011;41776;48.260;8.928;2022-07-12T13:20:11;0.70;;;0.50;;
1725;SDS011;41776;48.260;8.928;2022-07-12T13:22:38;0.63;;;0.63;;
1725;SDS011;41776;48.260;8.928;2022-07-12T13:25:06;0.65;;;0.60;;
1725;SDS011;41776;48.260;8.928;2022-07-12T13:27:33;0.50;;;0.50;;
1725;SDS011;41776;48.260;8.928;2022-07-12T13:30:02;0.60;;;0.50;;
1725;SDS011;41776;48.260;8.928;2022-07-12T13:32:29;1.58;;;0.63;;
1725;SDS011;41776;48.260;8.928;2022-07-12T13:34:55;0.70;;;0.70;;
1725;SDS011;41776;48.260;8.928;2022-07-12T13:37:22;0.95;;;0.73;;
1725;SDS011;41776;48.260;8.928;2022-07-12T13:39:48;1.13;;;0.70;;
1725;SDS011;41776;48.260;8.928;2022-07-12T13:42:32;1.25;;;0.40;;
1725;SDS011;41776;48.260;8.928;2022-07-12T13:44:59;1.25;;;0.50;;
1725;SDS011;41776;48.260;8.928;2022-07-12T13:47:27;0.40;;;0.40;;
1725;SDS011;41776;48.260;8.928;2022-07-12T13:49:53;1.27;;;0.60;;
1725;SDS011;41776;48.260;8.928;2022-07-12T13:52:20;0.90;;;0.50;;
1725;SDS011;41776;48.260;8.928;2022-07-12T13:54:46;0.98;;;0.40;;
1725;SDS011;41776;48.260;8.928;2022-07-12T13:57:13;0.95;;;0.50;;
1725;SDS011;41776;48.260;8.928;2022-07-12T13:59:39;0.75;;;0.40;;
1725;SDS011;41776;48.260;8.928;2022-07-12T14:02:06;2.60;;;0.60;;
1725;SDS011;41776;48.260;8.928;2022-07-12T14:04:34;1.05;;;0.40;;
1725;SDS011;41776;48.260;8.928;2022-07-12T14:07:01;0.95;;;0.52;;
1725;SDS011;41776;48.260;8.928;2022-07-12T14:09:27;1.00;;;0.57;;
1725;SDS011;41776;48.260;8.928;2022-07-12T14:11:54;3.13;;;0.73;;
1725;SDS011;41776;48.260;8.928;2022-07-12T14:14:20;1.00;;;0.50;;
1725;SDS011;41776;48.260;8.928;2022-07-12T14:17:12;1.98;;;0.50;;
1725;SDS011;41776;48.260;8.928;2022-07-12T14:19:39;1.42;;;0.77;;
1725;SDS011;41776;48.260;8.928;2022-07-12T14:22:06;1.08;;;0.45;;
1725;SDS011;41776;48.260;8.928;2022-07-12T14:24:32;4.90;;;0.70;;
1725;SDS011;41776;48.260;8.928;2022-07-12T14:26:59;2.35;;;0.52;;
1725;SDS011;41776;48.260;8.928;2022-07-12T14:29:26;0.40;;;0.40;;
1725;SDS011;41776;48.260;8.928;2022-07-12T14:31:52;1.73;;;0.50;;
1725;SDS011;41776;48.260;8.928;2022-07-12T14:34:20;0.50;;;0.30;;
1725;SDS011;41776;48.260;8.928;2022-07-12T14:36:48;1.10;;;0.50;;
1725;SDS011;41776;48.260;8.928;2022-07-12T14:39:16;0.45;;;0.40;;
1725;SDS011;41776;48.260;8.928;2022-07-12T14:41:46;1.08;;;0.30;;
1725;SDS011;41776;48.260;8.928;2022-07-12T14:44:18;0.90;;;0.43;;
1725;SDS011;41776;48.260;8.928;2022-07-12T14:46:46;1.38;;;0.47;;
1725;SDS011;41776;48.260;8.928;2022-07-12T14:49:12;0.30;;;0.30;;
1725;SDS011;41776;48.260;8.928;2022-07-12T14:51:39;0.85;;;0.38;;
1725;SDS011;41776;48.260;8.928;2022-07-12T14:54:07;0.40;;;0.40;;
1725;SDS011;41776;48.260;8.928;2022-07-12T14:56:33;0.57;;;0.40;;
1725;SDS011;41776;48.260;8.928;2022-07-12T14:58:59;0.30;;;0.30;;
1725;SDS011;41776;48.260;8.928;2022-07-12T15:01:26;1.30;;;0.50;;
1725;SDS011;41776;48.260;8.928;2022-07-12T15:03:53;0.30;;;0.30;;
1725;SDS011;41776;48.260;8.928;2022-07-12T15:06:19;0.40;;;0.25;;
1725;SDS011;41776;48.260;8.928;2022-07-12T15:08:47;0.85;;;0.40;;
1725;SDS011;41776;48.260;8.928;2022-07-12T15:11:15;0.28;;;0.28;;
1725;SDS011;41776;48.260;8.928;2022-07-12T15:13:41;0.50;;;0.28;;
1725;SDS011;41776;48.260;8.928;2022-07-12T15:16:08;0.90;;;0.40;;